Time;durP1;ratioP1;P1;durP2;ratioP2;P2;SDS_P1;SDS_P2;PMS_P1;PMS_P2;Temp;Humidity;BMP_temperature;BMP_pressure;BME280_temperature;BME280_humidity;BME280_pressure;Samples;Min_cycle;Max_cycle;Signal;HPM_P1;HPM_P2
2023/03/01 00:01:21;;;;;;;17.00;9.93;;;;;;;0.78;56.20;102398.47;4969010;28;20129;-59
2023/03/01 00:03:48;;;;;;;18.08;11.02;;;;;;;0.77;55.60;102404.50;4968862;28;20562;-60
2023/03/01 00:06:16;;;;;;;16.52;10.32;;;;;;;0.77;55.75;102388.94;4971200;28;20050;-61
2023/03/01 00:08:43;;;;;;;22.75;10.80;;;;;;;0.77;55.90;102383.78;4975592;28;20472;-58
2023/03/01 00:11:20;;;;;;;18.35;10.95;;;;;;;0.76;55.87;102384.59;4972301;28;20150;-62
2023/03/01 00:13:51;;;;;;;30.58;11.20;;;;;;;0.73;56.01;102382.00;4967378;28;20137;-60
2023/03/01 00:16:25;;;;;;;18.08;10.93;;;;;;;0.72;55.72;102385.41;4963697;28;20050;-58
2023/03/01 00:18:53;;;;;;;15.32;9.90;;;;;;;0.70;55.81;102379.38;4969331;28;20882;-58
2023/03/01 00:21:22;;;;;;;20.27;10.75;;;;;;;0.69;56.01;102380.22;4971694;28;20125;-59
2023/03/01 00:23:49;;;;;;;18.13;10.70;;;;;;;0.69;56.11;102375.03;4966084;28;20101;-57
2023/03/01 00:26:17;;;;;;;17.13;10.93;;;;;;;0.68;56.20;102371.59;4967322;28;20059;-59
2023/03/01 00:28:45;;;;;;;17.55;10.65;;;;;;;0.66;56.23;102368.09;4968090;28;20435;-57
2023/03/01 00:31:17;;;;;;;21.15;11.13;;;;;;;0.65;55.90;102365.50;4968403;28;20104;-59
2023/03/01 00:33:45;;;;;;;19.02;10.23;;;;;;;0.65;56.06;102370.69;4969218;28;20145;-58
2023/03/01 00:36:14;;;;;;;19.65;11.02;;;;;;;0.64;56.04;102372.41;4954186;28;20062;-59
2023/03/01 00:38:44;;;;;;;18.05;10.55;;;;;;;0.63;56.18;102378.44;4968669;28;20051;-60
2023/03/01 00:41:14;;;;;;;17.98;11.13;;;;;;;0.61;56.11;102374.09;4968393;28;20111;-58
2023/03/01 00:43:42;;;;;;;18.25;10.63;;;;;;;0.58;56.66;102366.28;4967718;28;20170;-57
2023/03/01 00:46:16;;;;;;;20.73;10.40;;;;;;;0.58;56.20;102366.28;4970330;28;20046;-61
2023/03/01 00:48:43;;;;;;;15.63;9.95;;;;;;;0.58;56.55;102361.09;4964001;28;20227;-59
2023/03/01 00:51:13;;;;;;;18.63;10.05;;;;;;;0.57;56.40;102362.81;4959466;28;20042;-59
2023/03/01 00:53:42;;;;;;;21.45;11.30;;;;;;;0.54;56.68;102368.00;4965849;28;20078;-59
2023/03/01 00:56:11;;;;;;;17.80;10.48;;;;;;;0.52;56.36;102367.09;4968413;28;20141;-60
2023/03/01 00:58:38;;;;;;;17.95;10.77;;;;;;;0.52;56.91;102368.81;4973487;28;20469;-58
2023/03/01 01:01:18;;;;;;;19.83;11.85;;;;;;;0.54;56.83;102356.72;4966968;28;20053;-59
2023/03/01 01:03:47;;;;;;;19.45;11.35;;;;;;;0.52;56.98;102353.28;4968115;28;20084;-55
2023/03/01 01:06:20;;;;;;;24.35;12.00;;;;;;;0.52;56.89;102356.72;4978779;28;20141;-59
2023/03/01 01:08:48;;;;;;;17.88;11.43;;;;;;;0.52;56.80;102358.44;4971646;28;20552;-58
2023/03/01 01:11:15;;;;;;;16.80;10.52;;;;;;;0.50;56.80;102351.53;4969782;28;20067;-59
2023/03/01 01:13:44;;;;;;;19.38;11.27;;;;;;;0.49;56.88;102342.00;4968174;28;20072;-59
2023/03/01 01:16:11;;;;;;;18.40;10.50;;;;;;;0.47;56.93;102346.31;4964714;28;20137;-60
2023/03/01 01:18:40;;;;;;;19.63;10.90;;;;;;;0.43;57.01;102335.91;4967871;28;20070;-59
2023/03/01 01:21:09;;;;;;;20.50;11.32;;;;;;;0.41;57.20;102341.06;4962621;28;20134;-57
2023/03/01 01:23:38;;;;;;;18.92;11.63;;;;;;;0.38;57.31;102346.22;4967129;28;20084;-58
2023/03/01 01:26:10;;;;;;;18.85;11.18;;;;;;;0.32;57.81;102338.38;4972346;28;20397;-59
2023/03/01 01:28:38;;;;;;;21.40;12.05;;;;;;;0.29;57.43;102329.72;4967657;28;20562;-58
2023/03/01 01:31:05;;;;;;;20.65;13.02;;;;;;;0.28;57.94;102326.25;4970499;28;20129;-59
2023/03/01 01:33:33;;;;;;;17.08;11.57;;;;;;;0.28;57.52;102322.81;4965313;28;20069;-60
2023/03/01 01:36:01;;;;;;;16.65;10.23;;;;;;;0.28;57.60;102302.94;4967064;28;20046;-59
2023/03/01 01:38:28;;;;;;;20.40;11.93;;;;;;;0.28;57.51;102308.13;4966235;28;20165;-57
2023/03/01 01:40:56;;;;;;;19.15;11.20;;;;;;;0.25;57.48;102308.09;4966983;28;20135;-57
2023/03/01 01:43:26;;;;;;;18.92;11.20;;;;;;;0.24;57.66;102314.13;4966787;28;20055;-58
2023/03/01 01:46:05;;;;;;;22.63;12.18;;;;;;;0.23;58.08;102304.63;4969147;28;20047;-59
2023/03/01 01:49:49;;;;;;;19.80;11.43;;;;;;;0.20;58.14;102304.56;4964863;28;20170;-58
2023/03/01 01:52:35;;;;;;;20.90;11.23;;;;;;;0.17;58.41;102307.13;4928648;29;20060;-59
2023/03/01 01:55:14;;;;;;;18.05;11.80;;;;;;;0.14;58.49;102307.97;4910370;29;20067;-59
2023/03/01 01:57:51;;;;;;;19.55;11.23;;;;;;;0.12;58.50;102306.22;4954007;28;20129;-59
2023/03/01 02:00:21;;;;;;;20.58;11.55;;;;;;;0.10;58.16;102308.78;4963587;28;20137;-59
2023/03/01 02:02:54;;;;;;;19.02;11.68;;;;;;;0.07;58.58;102318.25;4968111;28;20419;-57
2023/03/01 02:05:35;;;;;;;21.23;12.20;;;;;;;0.05;58.54;102315.66;4962490;28;20513;-58
2023/03/01 02:08:02;;;;;;;21.67;12.32;;;;;;;0.02;58.94;102317.31;4965157;28;20221;-58
2023/03/01 02:10:33;;;;;;;18.63;11.43;;;;;;;-0.02;58.75;102325.03;4974803;28;20155;-59
2023/03/01 02:13:02;;;;;;;23.05;12.85;;;;;;;-0.04;58.92;102331.06;4970336;28;20352;-57
2023/03/01 02:15:34;;;;;;;22.10;12.45;;;;;;;-0.06;58.74;102327.56;4966052;28;20142;-59
2023/03/01 02:18:02;;;;;;;18.98;12.32;;;;;;;-0.13;59.29;102336.13;4964968;28;20646;-62
2023/03/01 02:21:04;;;;;;;20.45;11.48;;;;;;;-0.16;59.09;102328.31;4961196;28;20070;-61
2023/03/01 02:23:31;;;;;;;22.40;12.25;;;;;;;-0.17;59.27;102326.59;4967075;28;20138;-62
2023/03/01 02:26:13;;;;;;;18.48;11.35;;;;;;;-0.16;59.30;102330.91;4961635;28;20098;-61
2023/03/01 02:28:42;;;;;;;19.50;11.27;;;;;;;-0.15;59.51;102324.88;4964492;28;20082;-62
2023/03/01 02:34:04;;;;;;;18.92;11.88;;;;;;;-0.16;58.96;102334.38;4969963;28;20074;-59
2023/03/01 02:36:40;;;;;;;24.48;13.77;;;;;;;-0.15;59.20;102336.09;4972353;28;20057;-60
2023/03/01 02:39:14;;;;;;;23.75;12.90;;;;;;;-0.18;59.14;102338.66;4970142;28;20150;-59
2023/03/01 02:41:44;;;;;;;22.20;12.55;;;;;;;-0.20;59.52;102329.13;4970705;28;20126;-59
2023/03/01 02:44:11;;;;;;;21.08;12.27;;;;;;;-0.23;59.53;102323.91;4969804;28;20178;-59
2023/03/01 02:46:46;;;;;;;20.77;12.90;;;;;;;-0.22;59.51;102317.91;4971694;28;20098;-60
2023/03/01 02:49:31;;;;;;;24.25;12.82;;;;;;;-0.24;59.51;102315.28;4973635;28;20150;-58
2023/03/01 02:52:21;;;;;;;25.37;13.13;;;;;;;-0.26;59.84;102324.75;4972423;28;20130;-60
2023/03/01 02:54:57;;;;;;;20.50;13.57;;;;;;;-0.29;59.36;102314.34;4964711;28;20055;-58
2023/03/01 02:57:27;;;;;;;22.70;13.18;;;;;;;-0.31;59.93;102304.00;4968969;28;20141;-58
2023/03/01 02:59:59;;;;;;;27.83;13.32;;;;;;;-0.31;59.66;102305.72;4973685;28;20074;-58
2023/03/01 03:02:38;;;;;;;22.17;12.88;;;;;;;-0.32;59.81;102303.94;4966436;28;20050;-58
2023/03/01 03:05:29;;;;;;;23.50;13.80;;;;;;;-0.33;59.58;102307.41;4964171;28;20519;-59
2023/03/01 03:07:58;;;;;;;23.17;13.13;;;;;;;-0.35;60.04;102304.81;4971183;28;20133;-58
2023/03/01 03:10:28;;;;;;;23.40;12.57;;;;;;;-0.35;59.69;102299.63;4975439;28;20050;-60
2023/03/01 03:13:05;;;;;;;25.42;13.88;;;;;;;-0.34;59.58;102295.31;4986680;28;20086;-59
2023/03/01 03:15:35;;;;;;;20.30;12.43;;;;;;;-0.35;59.67;102298.75;4963819;28;20082;-59
2023/03/01 03:18:06;;;;;;;22.33;12.57;;;;;;;-0.35;59.52;102304.81;4969228;28;20134;-60
2023/03/01 03:20:33;;;;;;;26.23;13.50;;;;;;;-0.35;59.64;102301.34;4964390;28;20069;-56
2023/03/01 03:23:01;;;;;;;27.10;13.70;;;;;;;-0.37;59.91;102305.63;4973021;28;20068;-56
2023/03/01 03:25:29;;;;;;;26.17;13.20;;;;;;;-0.37;59.86;102305.63;4967479;28;20505;-56
2023/03/01 03:27:57;;;;;;;22.67;13.25;;;;;;;-0.39;60.23;102302.16;4968196;28;20163;-59
2023/03/01 03:30:30;;;;;;;25.40;14.05;;;;;;;-0.42;60.02;102292.63;4967203;28;20133;-57
2023/03/01 03:32:58;;;;;;;24.25;12.88;;;;;;;-0.43;60.31;102290.03;4969666;28;20876;-60
2023/03/01 03:35:29;;;;;;;21.20;12.77;;;;;;;-0.44;60.41;102288.28;4970034;28;20072;-57
2023/03/01 03:38:02;;;;;;;22.08;13.55;;;;;;;-0.46;60.34;102282.22;4972247;28;20141;-58
2023/03/01 03:40:40;;;;;;;25.70;13.57;;;;;;;-0.48;60.29;102289.97;4969970;28;20062;-59
2023/03/01 03:43:10;;;;;;;22.83;13.15;;;;;;;-0.51;60.23;102276.97;4977449;28;20079;-58
2023/03/01 03:45:37;;;;;;;25.13;13.55;;;;;;;-0.50;60.51;102278.72;4966639;28;20138;-59
2023/03/01 03:48:06;;;;;;;23.38;12.48;;;;;;;-0.52;60.45;102272.66;4972368;28;20134;-59
2023/03/01 03:50:33;;;;;;;20.77;12.57;;;;;;;-0.51;60.39;102271.81;4967354;28;20058;-57
2023/03/01 03:53:01;;;;;;;22.05;12.25;;;;;;;-0.51;60.76;102264.03;4959464;28;20114;-58
2023/03/01 03:55:30;;;;;;;20.63;12.20;;;;;;;-0.51;60.10;102261.44;4966969;28;20159;-58
2023/03/01 03:58:02;;;;;;;19.92;11.32;;;;;;;-0.51;60.38;102259.72;4969893;28;20642;-57
2023/03/01 04:00:29;;;;;;;19.65;11.90;;;;;;;-0.51;60.17;102262.31;4970415;28;20142;-59
2023/03/01 04:02:56;;;;;;;26.00;13.65;;;;;;;-0.51;60.66;102258.88;4979104;28;20134;-59
2023/03/01 04:05:24;;;;;;;23.25;12.80;;;;;;;-0.52;60.74;102263.19;4974979;28;20137;-58
2023/03/01 04:08:00;;;;;;;22.42;12.82;;;;;;;-0.53;60.71;102258.84;4972181;28;20058;-55
2023/03/01 04:10:30;;;;;;;26.90;13.27;;;;;;;-0.53;60.51;102266.63;4967094;28;20688;-57
2023/03/01 04:12:57;;;;;;;22.63;12.57;;;;;;;-0.52;60.68;102259.72;4969285;28;20493;-59
2023/03/01 04:15:25;;;;;;;22.67;12.43;;;;;;;-0.52;60.55;102267.47;4968384;28;20057;-58
2023/03/01 04:17:53;;;;;;;21.23;12.75;;;;;;;-0.52;60.43;102270.94;4962349;28;21051;-56
2023/03/01 04:20:24;;;;;;;20.85;11.90;;;;;;;-0.50;60.67;102268.34;4965542;28;20058;-58
2023/03/01 04:23:18;;;;;;;21.73;12.50;;;;;;;-0.49;60.51;102264.94;4980224;28;20053;-58
2023/03/01 04:25:54;;;;;;;20.30;11.45;;;;;;;-0.53;60.46;102269.22;4965495;28;20075;-58
2023/03/01 04:28:26;;;;;;;24.98;13.50;;;;;;;-0.53;60.63;102268.34;4967007;28;20051;-59
2023/03/01 04:30:55;;;;;;;18.23;11.60;;;;;;;-0.58;61.06;102267.41;4964676;28;20057;-59
2023/03/01 04:33:22;;;;;;;20.75;12.55;;;;;;;-0.59;60.59;102258.75;4967282;28;20133;-58
2023/03/01 04:35:50;;;;;;;18.73;12.15;;;;;;;-0.58;60.79;102251.91;4967248;28;20053;-58
2023/03/01 04:38:18;;;;;;;21.48;11.75;;;;;;;-0.58;61.11;102257.94;4967799;28;20478;-60
2023/03/01 04:40:47;;;;;;;23.45;12.52;;;;;;;-0.59;60.96;102256.16;4967017;28;20105;-59
2023/03/01 04:43:14;;;;;;;20.75;12.23;;;;;;;-0.59;60.88;102255.31;4971397;28;20093;-60
2023/03/01 04:45:42;;;;;;;22.35;11.98;;;;;;;-0.59;61.19;102255.31;4955325;28;20129;-57
2023/03/01 04:48:09;;;;;;;21.38;12.73;;;;;;;-0.58;61.17;102259.66;4957754;28;20141;-58
2023/03/01 04:50:36;;;;;;;24.45;12.75;;;;;;;-0.57;61.13;102263.97;4968075;28;20059;-59
2023/03/01 04:53:03;;;;;;;21.20;11.65;;;;;;;-0.56;60.83;102247.59;4970417;28;20472;-59
2023/03/01 04:55:31;;;;;;;21.58;13.25;;;;;;;-0.60;61.09;102251.84;4970584;28;20046;-58
2023/03/01 04:57:58;;;;;;;22.73;12.48;;;;;;;-0.60;61.26;102253.56;4968500;28;20050;-58
2023/03/01 05:00:26;;;;;;;22.98;12.38;;;;;;;-0.63;62.09;102249.25;4961448;28;20542;-55
2023/03/01 05:02:59;;;;;;;21.05;13.40;;;;;;;-0.68;63.56;102255.19;4962493;28;20093;-59
2023/03/01 05:05:27;;;;;;;18.85;11.63;;;;;;;-0.69;62.48;102256.03;4967327;28;20138;-57
2023/03/01 05:07:56;;;;;;;22.17;12.60;;;;;;;-0.68;62.55;102255.19;4967539;28;20038;-58
2023/03/01 05:10:25;;;;;;;20.42;12.50;;;;;;;-0.68;62.06;102253.47;4965313;28;20421;-58
2023/03/01 05:12:52;;;;;;;23.77;13.30;;;;;;;-0.67;62.24;102247.47;4967517;28;20070;-59
2023/03/01 05:15:21;;;;;;;24.02;13.27;;;;;;;-0.68;62.48;102250.00;4965459;28;20532;-58
2023/03/01 05:17:49;;;;;;;27.23;13.10;;;;;;;-0.70;62.30;102250.00;4964455;28;20054;-59
2023/03/01 05:20:16;;;;;;;23.00;13.45;;;;;;;-0.69;62.03;102253.47;4963389;28;20167;-57
2023/03/01 05:22:43;;;;;;;23.10;12.95;;;;;;;-0.70;62.66;102251.72;4961662;28;20059;-60
2023/03/01 05:25:11;;;;;;;24.85;13.05;;;;;;;-0.72;62.13;102250.81;4962283;28;20053;-56
2023/03/01 05:27:38;;;;;;;24.13;14.35;;;;;;;-0.73;62.35;102246.50;4964122;28;20446;-60
2023/03/01 05:30:13;;;;;;;23.67;13.18;;;;;;;-0.73;62.72;102247.38;4965328;28;20080;-58
2023/03/01 05:32:48;;;;;;;24.83;13.52;;;;;;;-0.75;62.65;102248.22;4964975;28;20142;-59
2023/03/01 05:35:17;;;;;;;22.07;13.37;;;;;;;-0.77;62.80;102248.16;4970089;28;20051;-56
2023/03/01 05:37:46;;;;;;;24.70;13.73;;;;;;;-0.78;62.83;102247.31;4966051;28;20167;-59
2023/03/01 05:40:18;;;;;;;27.80;13.25;;;;;;;-0.78;62.62;102243.84;4966880;28;20137;-58
2023/03/01 05:42:48;;;;;;;23.45;13.35;;;;;;;-0.75;62.77;102238.72;4964559;28;20069;-59
2023/03/01 05:45:16;;;;;;;22.10;12.80;;;;;;;-0.77;62.65;102243.91;4961855;28;20050;-59
2023/03/01 05:47:45;;;;;;;23.50;13.93;;;;;;;-0.76;62.50;102234.41;4964920;28;20075;-59
2023/03/01 05:50:20;;;;;;;23.77;13.63;;;;;;;-0.74;62.90;102234.44;4957757;28;20062;-58
2023/03/01 05:52:49;;;;;;;22.85;13.52;;;;;;;-0.74;62.75;102239.59;4961539;28;20063;-59
2023/03/01 05:55:19;;;;;;;24.70;13.82;;;;;;;-0.77;62.65;102235.25;4971296;28;20183;-58
2023/03/01 05:57:46;;;;;;;24.83;13.05;;;;;;;-0.77;62.69;102240.41;4966695;28;20631;-57
2023/03/01 06:00:16;;;;;;;21.90;13.40;;;;;;;-0.77;62.70;102238.72;4968228;28;20064;-59
2023/03/01 06:02:44;;;;;;;24.02;13.20;;;;;;;-0.79;63.00;102235.22;4964711;28;20126;-59
2023/03/01 06:05:12;;;;;;;23.95;13.13;;;;;;;-0.79;62.82;102237.81;4962700;28;20051;-57
2023/03/01 06:07:40;;;;;;;22.25;12.70;;;;;;;-0.79;62.99;102242.13;4967056;28;20053;-58
2023/03/01 06:10:08;;;;;;;21.58;13.05;;;;;;;-0.76;62.91;102249.94;4965890;28;20078;-59
2023/03/01 06:12:37;;;;;;;22.60;13.25;;;;;;;-0.74;62.98;102242.19;4961070;28;20132;-58
2023/03/01 06:15:06;;;;;;;22.85;13.27;;;;;;;-0.78;63.41;102243.84;4983825;28;20062;-59
2023/03/01 06:17:37;;;;;;;25.25;13.30;;;;;;;-0.78;63.11;102242.13;4969221;28;20059;-59
2023/03/01 06:20:05;;;;;;;24.77;12.98;;;;;;;-0.75;63.20;102245.63;4966008;28;20687;-60
2023/03/01 06:22:33;;;;;;;23.95;13.50;;;;;;;-0.74;63.26;102237.88;4971494;28;20078;-58
2023/03/01 06:25:01;;;;;;;22.30;13.02;;;;;;;-0.73;63.07;102244.78;4965511;28;20069;-58
2023/03/01 06:27:28;;;;;;;23.48;14.18;;;;;;;-0.70;62.95;102249.13;4964041;28;20057;-59
2023/03/01 06:29:55;;;;;;;26.83;15.30;;;;;;;-0.68;62.98;102245.72;4974629;28;20046;-59
2023/03/01 06:32:22;;;;;;;21.15;13.35;;;;;;;-0.64;62.79;102246.63;4959392;28;20061;-59
2023/03/01 06:34:50;;;;;;;26.90;15.52;;;;;;;-0.64;63.00;102250.06;4963135;28;20723;-59
2023/03/01 06:37:17;;;;;;;27.52;14.93;;;;;;;-0.62;63.13;102252.69;4977118;28;20080;-60
2023/03/01 06:39:44;;;;;;;23.00;15.10;;;;;;;-0.59;62.88;102251.00;4984044;28;20132;-58
2023/03/01 06:42:11;;;;;;;29.27;15.65;;;;;;;-0.56;62.46;102255.34;4971525;28;20137;-59
2023/03/01 06:44:39;;;;;;;24.80;15.80;;;;;;;-0.53;62.74;102260.56;4983274;28;20142;-60
2023/03/01 06:47:06;;;;;;;26.05;15.13;;;;;;;-0.50;62.56;102260.59;4979101;28;20440;-61
2023/03/01 06:49:33;;;;;;;25.73;16.27;;;;;;;-0.47;62.35;102252.88;4979346;28;20082;-58
2023/03/01 06:52:01;;;;;;;29.02;16.65;;;;;;;-0.44;62.57;102257.25;4976285;28;20392;-57
2023/03/01 06:54:28;;;;;;;28.65;15.02;;;;;;;-0.41;62.78;102259.84;4967951;28;20059;-56
2023/03/01 06:56:55;;;;;;;23.27;14.30;;;;;;;-0.39;62.71;102261.63;4972286;28;20169;-59
2023/03/01 06:59:22;;;;;;;25.65;14.77;;;;;;;-0.37;62.52;102257.31;4981107;28;20061;-58
2023/03/01 07:01:49;;;;;;;28.92;17.20;;;;;;;-0.34;62.87;102259.09;4975062;28;20055;-58
2023/03/01 07:04:17;;;;;;;30.05;16.73;;;;;;;-0.31;62.96;102256.53;4971022;28;20462;-59
2023/03/01 07:06:44;;;;;;;36.50;17.13;;;;;;;-0.28;62.53;102261.75;4968684;28;20065;-59
2023/03/01 07:09:11;;;;;;;29.60;16.20;;;;;;;-0.24;62.32;102263.50;4971531;28;20134;-57
2023/03/01 07:11:38;;;;;;;30.23;16.20;;;;;;;-0.21;62.30;102263.56;4978558;28;20074;-59
2023/03/01 07:14:06;;;;;;;34.20;16.35;;;;;;;-0.19;62.79;102268.75;4980742;28;20503;-59
2023/03/01 07:16:33;;;;;;;29.83;17.42;;;;;;;-0.15;62.24;102273.09;4984816;22;20270;-59
2023/03/01 07:19:01;;;;;;;28.52;15.50;;;;;;;-0.13;62.47;102271.44;4990101;28;20045;-58
2023/03/01 07:21:28;;;;;;;29.45;17.13;;;;;;;-0.10;62.48;102269.72;4975648;28;20585;-57
2023/03/01 07:23:56;;;;;;;35.15;17.42;;;;;;;-0.06;62.34;102273.22;4984668;28;20145;-58
2023/03/01 07:26:23;;;;;;;30.35;15.40;;;;;;;-0.04;62.33;102274.97;4981791;28;20380;-60
2023/03/01 07:28:52;;;;;;;29.02;16.58;;;;;;;0.02;62.55;102273.31;4972212;28;20069;-60
2023/03/01 07:31:19;;;;;;;27.52;15.40;;;;;;;0.07;62.39;102269.03;4964083;28;20069;-60
2023/03/01 07:33:46;;;;;;;33.35;17.27;;;;;;;0.12;61.92;102267.38;4964200;28;20053;-60
2023/03/01 07:36:13;;;;;;;27.95;17.33;;;;;;;0.17;62.54;102273.47;4972239;28;20135;-58
2023/03/01 07:38:40;;;;;;;26.88;16.30;;;;;;;0.21;62.67;102263.16;4969736;28;20054;-58
2023/03/01 07:41:07;;;;;;;31.17;16.20;;;;;;;0.27;62.19;102264.94;4971272;28;20122;-60
2023/03/01 07:43:38;;;;;;;29.75;17.58;;;;;;;0.33;62.11;102259.81;4976977;28;20054;-60
2023/03/01 07:46:06;;;;;;;32.78;16.90;;;;;;;0.37;62.34;102253.81;4973134;28;20055;-55
2023/03/01 07:48:33;;;;;;;26.80;16.48;;;;;;;0.42;62.22;102253.84;4973436;28;20533;-60
2023/03/01 07:51:03;;;;;;;23.55;14.52;;;;;;;0.47;61.79;102252.16;4969589;28;20055;-59
2023/03/01 07:53:31;;;;;;;25.73;14.25;;;;;;;0.52;61.83;102249.63;4969889;28;21371;-57
2023/03/01 07:56:11;;;;;;;22.73;12.57;;;;;;;0.58;61.85;102253.13;4970988;28;20134;-62
2023/03/01 07:58:41;;;;;;;20.92;12.43;;;;;;;0.63;61.38;102261.81;4979705;28;20151;-58
2023/03/01 08:01:14;;;;;;;23.45;13.60;;;;;;;0.70;61.26;102260.13;4964518;28;20047;-57
2023/03/01 08:03:43;;;;;;;19.92;13.20;;;;;;;0.75;61.20;102261.03;4972434;28;20066;-61
2023/03/01 08:06:11;;;;;;;22.50;13.63;;;;;;;0.82;61.10;102264.56;4977859;28;20058;-60
2023/03/01 08:08:39;;;;;;;23.55;14.05;;;;;;;0.87;61.41;102261.13;4972637;28;20054;-60
2023/03/01 08:11:07;;;;;;;26.05;13.90;;;;;;;0.94;60.85;102249.06;4968306;28;20077;-55
2023/03/01 08:13:34;;;;;;;32.40;16.13;;;;;;;0.99;61.11;102250.84;4970435;28;20556;-59
2023/03/01 08:16:08;;;;;;;25.75;15.10;;;;;;;1.06;61.18;102254.34;4971166;28;20109;-60
2023/03/01 08:18:36;;;;;;;23.75;14.75;;;;;;;1.16;61.50;102255.25;4959963;28;20062;-57
2023/03/01 08:21:13;;;;;;;27.27;15.32;;;;;;;1.23;61.52;102251.84;4973519;28;20043;-60
2023/03/01 08:23:44;;;;;;;27.75;15.68;;;;;;;1.32;61.31;102240.66;4968452;28;20243;-56
2023/03/01 08:26:12;;;;;;;26.42;14.88;;;;;;;1.38;61.53;102246.75;4963357;28;20051;-54
2023/03/01 08:28:40;;;;;;;28.52;15.48;;;;;;;1.45;62.09;102240.72;4970199;28;20085;-58
2023/03/01 08:31:21;;;;;;;22.60;15.02;;;;;;;1.54;61.81;102239.91;4991669;28;20050;-60
2023/03/01 08:33:54;;;;;;;25.63;14.23;;;;;;;1.62;61.19;102233.03;4964984;28;20066;-56
2023/03/01 08:36:29;;;;;;;25.23;15.05;;;;;;;1.69;61.28;102234.75;4970285;28;20058;-58
2023/03/01 08:38:58;;;;;;;26.10;13.88;;;;;;;1.78;61.61;102237.38;4949967;28;20065;-59
2023/03/01 08:41:26;;;;;;;22.35;13.18;;;;;;;1.85;61.70;102230.50;4970322;28;20051;-55
2023/03/01 08:43:58;;;;;;;23.73;13.60;;;;;;;1.92;61.12;102229.63;4970475;28;20051;-58
2023/03/01 08:46:37;;;;;;;25.02;14.20;;;;;;;1.99;61.08;102223.59;4965154;28;20272;-58
2023/03/01 08:49:06;;;;;;;24.25;13.95;;;;;;;2.07;60.83;102233.13;4970956;28;20047;-56
2023/03/01 08:51:36;;;;;;;23.08;13.93;;;;;;;2.12;60.96;102231.44;4967910;28;20054;-57
2023/03/01 08:54:04;;;;;;;26.85;12.90;;;;;;;2.21;61.21;102226.25;4966062;28;20149;-60
2023/03/01 08:56:32;;;;;;;22.38;12.30;;;;;;;2.31;61.11;102227.97;4965971;28;20146;-59
2023/03/01 08:59:00;;;;;;;25.38;11.27;;;;;;;2.48;62.49;102217.59;4966145;28;20054;-57
2023/03/01 09:01:28;;;;;;;17.65;11.40;;;;;;;2.58;61.63;102221.91;4961195;28;20053;-60
2023/03/01 09:03:55;;;;;;;18.23;10.20;;;;;;;2.62;60.74;102221.06;4970983;28;20142;-58
2023/03/01 09:06:22;;;;;;;15.00;8.90;;;;;;;2.67;60.58;102219.31;4968229;28;20695;-57
2023/03/01 09:08:50;;;;;;;13.60;8.48;;;;;;;2.71;59.91;102210.66;4967880;28;20046;-53
2023/03/01 09:11:21;;;;;;;14.00;7.57;;;;;;;2.80;59.76;102217.56;4965776;28;20545;-56
2023/03/01 09:13:49;;;;;;;35.40;22.25;;;;;;;2.87;59.31;102214.06;4969511;28;20129;-56
2023/03/01 09:16:18;;;;;;;30.20;18.40;;;;;;;2.94;58.75;102209.75;4972949;28;20077;-56
2023/03/01 09:18:50;;;;;;;12.70;6.95;;;;;;;3.03;58.96;102222.75;4975988;28;20060;-53
2023/03/01 09:21:20;;;;;;;12.02;5.78;;;;;;;3.07;59.10;102224.47;4971932;28;20093;-54
2023/03/01 09:24:05;;;;;;;12.00;5.75;;;;;;;3.12;59.18;102219.25;4966853;28;20070;-60
2023/03/01 09:26:32;;;;;;;15.63;6.22;;;;;;;3.19;58.53;102219.19;4968641;28;20142;-59
2023/03/01 09:29:01;;;;;;;13.48;5.68;;;;;;;3.27;58.46;102214.00;4964416;28;20109;-56
2023/03/01 09:31:28;;;;;;;7.57;4.35;;;;;;;3.42;58.03;102213.06;4968881;28;20410;-60
2023/03/01 09:33:55;;;;;;;11.95;4.97;;;;;;;3.52;57.94;102217.38;4964675;28;20059;-59
2023/03/01 09:36:25;;;;;;;9.25;4.40;;;;;;;3.60;58.18;102212.97;4968721;28;20079;-60
2023/03/01 09:38:53;;;;;;;7.93;4.25;;;;;;;3.67;57.91;102213.84;4968062;28;20063;-58
2023/03/01 09:41:38;;;;;;;10.57;5.43;;;;;;;3.75;55.60;102215.53;4969426;28;20129;-59
2023/03/01 09:44:23;;;;;;;12.13;5.10;;;;;;;3.86;56.28;102217.19;4973807;28;20074;-57
2023/03/01 09:46:51;;;;;;;10.90;4.75;;;;;;;3.86;54.57;102210.25;4976747;28;20066;-56
2023/03/01 09:49:21;;;;;;;16.10;5.85;;;;;;;3.87;54.84;102218.91;4958744;28;20055;-57
2023/03/01 09:52:21;;;;;;;10.85;5.78;;;;;;;3.91;56.09;102213.69;4971220;28;20137;-57
2023/03/01 09:54:49;;;;;;;16.80;6.55;;;;;;;3.99;56.36;102205.81;4991052;28;20529;-55
2023/03/01 09:58:02;;;;;;;11.65;5.50;;;;;;;4.07;56.69;102209.25;4976896;28;20082;-57
2023/03/01 10:00:39;;;;;;;10.02;5.95;;;;;;;4.17;55.61;102213.53;4960512;28;20138;-58
2023/03/01 10:03:26;;;;;;;10.75;5.00;;;;;;;4.24;55.00;102203.94;4971127;28;20061;-59
2023/03/01 10:06:04;;;;;;;11.90;5.72;;;;;;;4.35;56.43;102203.84;4977474;28;20046;-58
2023/03/01 10:08:43;;;;;;;8.88;5.47;;;;;;;4.41;55.70;102206.38;4978050;28;20059;-57
2023/03/01 10:11:25;;;;;;;8.00;4.50;;;;;;;4.51;56.06;102208.06;4979202;28;20630;-56
2023/03/01 10:17:31;;;;;;;10.02;5.25;;;;;;;4.69;55.93;102212.25;4976564;28;20449;-57
2023/03/01 10:20:22;;;;;;;8.20;5.10;;;;;;;4.81;56.47;102218.19;4969841;28;20076;-58
2023/03/01 10:22:52;;;;;;;9.25;4.65;;;;;;;4.92;56.74;102215.50;4972722;28;20054;-57
2023/03/01 10:25:38;;;;;;;9.00;4.80;;;;;;;5.02;55.94;102205.81;4976489;28;20058;-56
2023/03/01 10:28:44;;;;;;;8.45;4.68;;;;;;;5.16;55.04;102206.53;4967245;28;20411;-58
2023/03/01 10:31:15;;;;;;;10.82;4.55;;;;;;;5.27;55.40;102206.44;4973640;28;20047;-57
2023/03/01 10:33:42;;;;;;;11.65;4.50;;;;;;;5.37;53.38;102201.97;4971702;28;20102;-57
2023/03/01 10:36:10;;;;;;;11.75;4.22;;;;;;;5.44;52.73;102195.75;4979819;28;20043;-57
2023/03/01 10:38:56;;;;;;;8.70;4.57;;;;;;;5.49;51.42;102200.06;4975018;28;20054;-57
2023/03/01 10:41:25;;;;;;;8.60;4.35;;;;;;;5.57;50.24;102199.94;4975572;28;20046;-59
2023/03/01 10:43:55;;;;;;;9.38;4.10;;;;;;;5.55;50.74;102189.53;4961518;28;20476;-61
2023/03/01 10:46:31;;;;;;;8.85;3.58;;;;;;;5.61;51.75;102193.81;4968617;28;20054;-59
2023/03/01 10:49:14;;;;;;;7.90;3.88;;;;;;;5.73;52.46;102188.44;4969193;28;20130;-58
2023/03/01 10:51:44;;;;;;;7.70;3.50;;;;;;;5.87;52.63;102177.78;4972006;28;20154;-56
2023/03/01 10:54:24;;;;;;;8.25;3.90;;;;;;;6.05;50.69;102181.91;4974123;28;20054;-53
2023/03/01 10:56:55;;;;;;;6.50;3.60;;;;;;;6.21;50.50;102174.66;4979696;28;20051;-58
2023/03/01 10:59:34;;;;;;;6.78;3.38;;;;;;;6.37;49.85;102178.75;4981393;28;20064;-58
2023/03/01 11:02:09;;;;;;;4.72;2.92;;;;;;;6.34;46.70;102174.44;4973237;28;20059;-59
2023/03/01 11:05:12;;;;;;;4.57;2.60;;;;;;;6.46;49.03;102167.28;4980166;28;20077;-58
2023/03/01 11:07:49;;;;;;;8.45;3.75;;;;;;;6.66;47.39;102169.53;4966760;28;20141;-56
2023/03/01 11:10:19;;;;;;;6.57;3.42;;;;;;;6.71;46.62;102170.31;4967981;28;20131;-57
2023/03/01 11:12:46;;;;;;;6.57;2.83;;;;;;;6.68;44.62;102167.78;4966060;28;20641;-57
2023/03/01 11:15:23;;;;;;;6.22;3.28;;;;;;;6.58;44.58;102160.09;4970000;28;20169;-58
2023/03/01 11:17:50;;;;;;;9.05;3.40;;;;;;;6.65;46.13;102155.59;4970292;28;20057;-56
2023/03/01 11:20:29;;;;;;;11.43;3.08;;;;;;;6.75;46.23;102145.81;4967300;28;20701;-58
2023/03/01 11:23:01;;;;;;;9.85;4.03;;;;;;;6.87;44.76;102145.59;4971257;28;20184;-60
2023/03/01 11:25:38;;;;;;;5.55;3.00;;;;;;;6.97;45.94;102146.28;4971699;28;20050;-57
2023/03/01 11:28:07;;;;;;;6.97;2.97;;;;;;;7.12;46.08;102145.13;4971316;28;20402;-55
2023/03/01 11:30:44;;;;;;;7.70;3.20;;;;;;;7.28;44.87;102146.53;4966508;28;20082;-58
2023/03/01 11:33:19;;;;;;;7.82;2.90;;;;;;;7.42;44.25;102143.59;4971065;28;20137;-55
2023/03/01 11:35:58;;;;;;;5.85;2.33;;;;;;;7.47;41.00;102141.75;4966218;28;20076;-54
2023/03/01 11:38:26;;;;;;;11.52;3.22;;;;;;;7.45;40.73;102141.78;4970923;28;20082;-63
2023/03/01 11:40:59;;;;;;;8.20;3.05;;;;;;;7.50;42.54;102134.69;4970208;28;20137;-55
2023/03/01 11:43:47;;;;;;;7.03;3.20;;;;;;;7.74;43.61;102135.88;4977120;28;20055;-57